Flight Track Log - Related Links

Times and Time Zones

All times are in EST time to prevent confusion due to time zone crossing. See the CES2376 flight status page for this flight to view local times or setup timezone preferences in your user account.

Time Position Orientation Groundspeed Altitude Reporting Facility
EST Latitude Longitude Course Direction KTS MPH feet Rate Location/Type
Sat 09:14:00 AM 35.3774 103.5332 96° East  Level Estimated
Sat 09:15:00 AM 35.3574 103.6619 101° East  Level Estimated
Sat 09:16:00 AM 35.3372 103.7905 101° East  Level Estimated
Sat 09:17:00 AM 35.3169 103.9191 101° East  Level Estimated
Sat 09:18:00 AM 35.2965 104.0476 101° East  Level Estimated
Sat 09:19:00 AM 35.2760 104.1760 101° East  Level Estimated
Sat 09:20:00 AM 35.2552 104.3043 101° East  Level Estimated
Sat 09:21:00 AM 35.2344 104.4326 101° East  Level Estimated
Sat 09:22:00 AM 35.2135 104.5609 101° East  Level Estimated
Sat 09:23:00 AM 35.1923 104.6890 101° East  Level Estimated
Sat 09:24:00 AM 35.1711 104.8171 101° East  Level Estimated
Sat 09:25:00 AM 35.1497 104.9451 102° East  Level Estimated
Sat 09:26:00 AM 35.1282 105.0731 102° East  Level Estimated
Sat 09:27:00 AM 35.1066 105.2010 102° East  Level Estimated
Sat 09:28:00 AM 35.0848 105.3288 102° East  Level Estimated
Sat 09:29:00 AM 35.0629 105.4566 102° East  Level Estimated
Sat 09:30:00 AM 35.0409 105.5843 102° East  Level Estimated
Sat 09:31:00 AM 35.0187 105.7119 102° East  Level Estimated
Sat 09:32:00 AM 34.9964 105.8394 102° East  Level Estimated
Sat 09:33:00 AM 34.9739 105.9669 102° East  Level Estimated
Sat 09:34:00 AM 34.9514 106.0943 102° East  Level Estimated
Sat 09:35:00 AM 34.9286 106.2216 102° East  Level Estimated
Sat 09:36:00 AM 34.9058 106.3489 102° East  Level Estimated
Sat 09:37:00 AM 34.8828 106.4761 102° East  Level Estimated
Sat 09:38:00 AM 34.8597 106.6032 102° East  Level Estimated
Sat 09:39:00 AM 34.8365 106.7303 103° East  Level Estimated
Sat 09:40:00 AM 34.8131 106.8573 103° East  Level Estimated
Sat 09:41:00 AM 34.7896 106.9842 103° East  Level Estimated
Sat 09:42:00 AM 34.7660 107.1110 103° East  Level Estimated
Sat 09:43:00 AM 34.7422 107.2378 103° East  Level Estimated
Sat 09:44:00 AM 34.7183 107.3645 103° East  Level Estimated
Sat 09:45:00 AM 34.6943 107.4911 103° East  Level Estimated
Sat 09:46:00 AM 34.6701 107.6176 103° East  Level Estimated
Sat 09:47:00 AM 34.6458 107.7441 103° East  Level Estimated
Sat 09:48:00 AM 34.6214 107.8705 103° East  Level Estimated
Sat 09:49:00 AM 34.5968 107.9968 103° East  Level Estimated
Sat 09:50:00 AM 34.5722 108.1230 103° East  Level Estimated
Sat 09:51:00 AM 34.5474 108.2492 103° East  Level Estimated
Sat 09:52:00 AM 34.5224 108.3753 103° East  Level Estimated
Sat 09:53:00 AM 34.4973 108.5013 104° East  Level Estimated
Sat 09:54:00 AM 34.4721 108.6273 104° East  Level Estimated
Sat 09:55:00 AM 34.4471 108.7516 104° East  Level Estimated
Sat 09:56:00 AM 34.4471 108.7516 121° Southeast  Level Estimated
Sat 09:57:00 AM 34.4471 108.7516 121° Southeast  Level Estimated
Sat 09:58:00 AM 34.4471 108.7516 121° Southeast  Level Estimated
Sat 09:59:00 AM 34.4471 108.7516 121° Southeast  Level Estimated
Sat 10:00:00 AM 34.4471 108.7516 121° Southeast  Level Estimated
Sat 10:01:00 AM 34.4471 108.7516 121° Southeast  Level Estimated
Sat 10:02:00 AM 34.4471 108.7516 121° Southeast  Level Estimated
Sat 10:03:00 AM 34.4471 108.7516 121° Southeast  Level Estimated
Sat 10:04:00 AM 34.4471 108.7516 121° Southeast  Level Estimated
Sat 10:05:00 AM 34.4471 108.7516 121° Southeast  Level Estimated
Sat 10:06:00 AM 34.4471 108.7516 121° Southeast  Level Estimated
Sat 10:07:00 AM 34.4471 108.7516 121° Southeast  Level Estimated
Sat 10:08:00 AM 34.4471 108.7516 121° Southeast  Level Estimated
Sat 10:09:00 AM 34.4471 108.7516 121° Southeast  Level Estimated
Sat 10:10:00 AM 34.4471 108.7516 121° Southeast  Level Estimated
Sat 10:11:00 AM 34.4471 108.7516 121° Southeast  Level Estimated

Login

Don't have an account? Register now (free) for customized features, flight alerts, and more!